sensor_id;sensor_type;location;lat;lon;timestamp;P1;durP1;ratioP1;P2;durP2;ratioP2
83634;SDS011;73596;49.482;11.238;2023-11-21T00:00:42;0.50;;;0.30;;
83634;SDS011;73596;49.482;11.238;2023-11-21T00:03:07;1.73;;;0.50;;
83634;SDS011;73596;49.482;11.238;2023-11-21T00:05:32;1.27;;;0.50;;
83634;SDS011;73596;49.482;11.238;2023-11-21T00:07:58;1.80;;;0.40;;
83634;SDS011;73596;49.482;11.238;2023-11-21T00:10:23;1.40;;;0.40;;
83634;SDS011;73596;49.482;11.238;2023-11-21T00:12:48;2.00;;;0.60;;
83634;SDS011;73596;49.482;11.238;2023-11-21T00:15:13;0.50;;;0.30;;
83634;SDS011;73596;49.482;11.238;2023-11-21T00:17:39;0.50;;;0.30;;
83634;SDS011;73596;49.482;11.238;2023-11-21T00:20:07;0.30;;;0.30;;
83634;SDS011;73596;49.482;11.238;2023-11-21T00:22:36;0.40;;;0.20;;
83634;SDS011;73596;49.482;11.238;2023-11-21T00:25:01;0.85;;;0.40;;
83634;SDS011;73596;49.482;11.238;2023-11-21T00:27:28;1.02;;;0.50;;
83634;SDS011;73596;49.482;11.238;2023-11-21T00:29:54;0.20;;;0.20;;
83634;SDS011;73596;49.482;11.238;2023-11-21T00:32:19;0.50;;;0.30;;
83634;SDS011;73596;49.482;11.238;2023-11-21T00:34:44;0.50;;;0.30;;
83634;SDS011;73596;49.482;11.238;2023-11-21T00:37:09;0.20;;;0.20;;
83634;SDS011;73596;49.482;11.238;2023-11-21T00:39:35;0.47;;;0.30;;
83634;SDS011;73596;49.482;11.238;2023-11-21T00:42:00;0.67;;;0.43;;
83634;SDS011;73596;49.482;11.238;2023-11-21T00:44:25;0.63;;;0.25;;
83634;SDS011;73596;49.482;11.238;2023-11-21T00:46:50;1.07;;;0.40;;
83634;SDS011;73596;49.482;11.238;2023-11-21T00:49:16;0.25;;;0.20;;
83634;SDS011;73596;49.482;11.238;2023-11-21T00:51:41;0.30;;;0.30;;
83634;SDS011;73596;49.482;11.238;2023-11-21T00:54:06;0.57;;;0.33;;
83634;SDS011;73596;49.482;11.238;2023-11-21T00:56:32;0.33;;;0.13;;
83634;SDS011;73596;49.482;11.238;2023-11-21T00:58:57;0.30;;;0.20;;
83634;SDS011;73596;49.482;11.238;2023-11-21T01:01:22;0.37;;;0.30;;
83634;SDS011;73596;49.482;11.238;2023-11-21T01:03:48;0.20;;;0.20;;
83634;SDS011;73596;49.482;11.238;2023-11-21T01:06:14;0.32;;;0.30;;
83634;SDS011;73596;49.482;11.238;2023-11-21T01:08:39;0.13;;;0.13;;
83634;SDS011;73596;49.482;11.238;2023-11-21T01:11:05;0.47;;;0.27;;
83634;SDS011;73596;49.482;11.238;2023-11-21T01:13:33;0.20;;;0.20;;
83634;SDS011;73596;49.482;11.238;2023-11-21T01:15:58;0.30;;;0.20;;
83634;SDS011;73596;49.482;11.238;2023-11-21T01:18:24;0.87;;;0.20;;
83634;SDS011;73596;49.482;11.238;2023-11-21T01:20:50;0.45;;;0.30;;
83634;SDS011;73596;49.482;11.238;2023-11-21T01:23:17;0.30;;;0.30;;
83634;SDS011;73596;49.482;11.238;2023-11-21T01:25:43;0.70;;;0.40;;
83634;SDS011;73596;49.482;11.238;2023-11-21T01:28:08;0.63;;;0.37;;
83634;SDS011;73596;49.482;11.238;2023-11-21T01:30:33;1.27;;;0.43;;
83634;SDS011;73596;49.482;11.238;2023-11-21T01:32:58;0.30;;;0.30;;
83634;SDS011;73596;49.482;11.238;2023-11-21T01:35:24;1.70;;;0.70;;
83634;SDS011;73596;49.482;11.238;2023-11-21T01:37:49;1.83;;;0.40;;
83634;SDS011;73596;49.482;11.238;2023-11-21T01:40:14;0.40;;;0.33;;
83634;SDS011;73596;49.482;11.238;2023-11-21T01:42:40;1.23;;;0.63;;
83634;SDS011;73596;49.482;11.238;2023-11-21T01:45:06;1.02;;;0.45;;
83634;SDS011;73596;49.482;11.238;2023-11-21T01:47:33;1.10;;;0.52;;
83634;SDS011;73596;49.482;11.238;2023-11-21T01:49:59;0.90;;;0.45;;
83634;SDS011;73596;49.482;11.238;2023-11-21T01:52:24;0.38;;;0.30;;
83634;SDS011;73596;49.482;11.238;2023-11-21T01:54:50;0.35;;;0.20;;
83634;SDS011;73596;49.482;11.238;2023-11-21T01:57:16;0.50;;;0.30;;
83634;SDS011;73596;49.482;11.238;2023-11-21T01:59:42;1.53;;;0.40;;
83634;SDS011;73596;49.482;11.238;2023-11-21T02:02:09;0.75;;;0.40;;
83634;SDS011;73596;49.482;11.238;2023-11-21T02:04:35;0.40;;;0.30;;
83634;SDS011;73596;49.482;11.238;2023-11-21T02:07:02;0.85;;;0.38;;
83634;SDS011;73596;49.482;11.238;2023-11-21T02:09:32;1.20;;;0.40;;
83634;SDS011;73596;49.482;11.238;2023-11-21T02:12:03;0.65;;;0.43;;
83634;SDS011;73596;49.482;11.238;2023-11-21T02:14:29;0.50;;;0.30;;
83634;SDS011;73596;49.482;11.238;2023-11-21T02:16:55;1.20;;;0.47;;
83634;SDS011;73596;49.482;11.238;2023-11-21T02:19:22;1.25;;;0.50;;
83634;SDS011;73596;49.482;11.238;2023-11-21T02:21:50;0.68;;;0.55;;
83634;SDS011;73596;49.482;11.238;2023-11-21T02:24:18;0.60;;;0.40;;
83634;SDS011;73596;49.482;11.238;2023-11-21T02:26:44;0.40;;;0.40;;
83634;SDS011;73596;49.482;11.238;2023-11-21T02:29:10;0.40;;;0.40;;
83634;SDS011;73596;49.482;11.238;2023-11-21T02:31:37;0.35;;;0.30;;
83634;SDS011;73596;49.482;11.238;2023-11-21T02:34:10;0.40;;;0.30;;
83634;SDS011;73596;49.482;11.238;2023-11-21T02:36:38;0.68;;;0.30;;
83634;SDS011;73596;49.482;11.238;2023-11-21T02:39:03;1.63;;;0.45;;
83634;SDS011;73596;49.482;11.238;2023-11-21T02:41:29;0.30;;;0.30;;
83634;SDS011;73596;49.482;11.238;2023-11-21T02:43:54;0.10;;;0.10;;
83634;SDS011;73596;49.482;11.238;2023-11-21T02:46:19;0.37;;;0.30;;
83634;SDS011;73596;49.482;11.238;2023-11-21T02:48:44;0.50;;;0.40;;
83634;SDS011;73596;49.482;11.238;2023-11-21T02:51:10;0.53;;;0.30;;
83634;SDS011;73596;49.482;11.238;2023-11-21T02:53:35;0.20;;;0.20;;
83634;SDS011;73596;49.482;11.238;2023-11-21T02:56:00;0.23;;;0.23;;
83634;SDS011;73596;49.482;11.238;2023-11-21T02:58:26;0.60;;;0.40;;
83634;SDS011;73596;49.482;11.238;2023-11-21T03:00:51;2.17;;;0.53;;
83634;SDS011;73596;49.482;11.238;2023-11-21T03:03:17;0.22;;;0.20;;
83634;SDS011;73596;49.482;11.238;2023-11-21T03:05:42;0.10;;;0.10;;
83634;SDS011;73596;49.482;11.238;2023-11-21T03:08:07;0.25;;;0.25;;
83634;SDS011;73596;49.482;11.238;2023-11-21T03:10:33;0.47;;;0.30;;
83634;SDS011;73596;49.482;11.238;2023-11-21T03:12:58;0.77;;;0.30;;
83634;SDS011;73596;49.482;11.238;2023-11-21T03:15:23;0.63;;;0.30;;
83634;SDS011;73596;49.482;11.238;2023-11-21T03:17:49;0.80;;;0.30;;
83634;SDS011;73596;49.482;11.238;2023-11-21T03:20:14;0.43;;;0.40;;
83634;SDS011;73596;49.482;11.238;2023-11-21T03:22:41;0.63;;;0.32;;
83634;SDS011;73596;49.482;11.238;2023-11-21T03:25:07;1.00;;;0.40;;
83634;SDS011;73596;49.482;11.238;2023-11-21T03:27:35;1.38;;;0.43;;
83634;SDS011;73596;49.482;11.238;2023-11-21T03:30:00;0.50;;;0.30;;
83634;SDS011;73596;49.482;11.238;2023-11-21T03:32:26;0.97;;;0.23;;
83634;SDS011;73596;49.482;11.238;2023-11-21T03:34:55;1.70;;;0.30;;
83634;SDS011;73596;49.482;11.238;2023-11-21T03:37:21;1.02;;;0.45;;
83634;SDS011;73596;49.482;11.238;2023-11-21T03:39:47;0.57;;;0.40;;
83634;SDS011;73596;49.482;11.238;2023-11-21T03:42:12;0.27;;;0.20;;
83634;SDS011;73596;49.482;11.238;2023-11-21T03:44:38;0.40;;;0.40;;
83634;SDS011;73596;49.482;11.238;2023-11-21T03:47:03;0.80;;;0.23;;
83634;SDS011;73596;49.482;11.238;2023-11-21T03:49:28;1.05;;;0.40;;
83634;SDS011;73596;49.482;11.238;2023-11-21T03:51:54;2.60;;;0.52;;
83634;SDS011;73596;49.482;11.238;2023-11-21T03:54:19;0.77;;;0.50;;
83634;SDS011;73596;49.482;11.238;2023-11-21T03:56:45;0.60;;;0.30;;
83634;SDS011;73596;49.482;11.238;2023-11-21T03:59:10;1.30;;;0.60;;
83634;SDS011;73596;49.482;11.238;2023-11-21T04:01:35;1.27;;;0.43;;
83634;SDS011;73596;49.482;11.238;2023-11-21T04:04:00;0.40;;;0.40;;
83634;SDS011;73596;49.482;11.238;2023-11-21T04:06:26;0.70;;;0.30;;
83634;SDS011;73596;49.482;11.238;2023-11-21T04:08:51;1.87;;;0.50;;
83634;SDS011;73596;49.482;11.238;2023-11-21T04:11:16;0.80;;;0.47;;
83634;SDS011;73596;49.482;11.238;2023-11-21T04:13:42;2.17;;;0.50;;
83634;SDS011;73596;49.482;11.238;2023-11-21T04:16:07;1.58;;;0.43;;
83634;SDS011;73596;49.482;11.238;2023-11-21T04:18:36;1.10;;;0.60;;
83634;SDS011;73596;49.482;11.238;2023-11-21T04:21:02;0.30;;;0.22;;
83634;SDS011;73596;49.482;11.238;2023-11-21T04:23:28;0.32;;;0.20;;
83634;SDS011;73596;49.482;11.238;2023-11-21T04:25:55;3.38;;;0.40;;
83634;SDS011;73596;49.482;11.238;2023-11-21T04:28:22;0.80;;;0.47;;
83634;SDS011;73596;49.482;11.238;2023-11-21T04:30:47;1.02;;;0.55;;
83634;SDS011;73596;49.482;11.238;2023-11-21T04:33:13;2.10;;;0.60;;
83634;SDS011;73596;49.482;11.238;2023-11-21T04:35:38;0.63;;;0.30;;
83634;SDS011;73596;49.482;11.238;2023-11-21T04:38:03;1.03;;;0.67;;
83634;SDS011;73596;49.482;11.238;2023-11-21T04:40:28;0.67;;;0.43;;
83634;SDS011;73596;49.482;11.238;2023-11-21T04:42:54;0.83;;;0.43;;
83634;SDS011;73596;49.482;11.238;2023-11-21T04:45:19;1.80;;;0.60;;
83634;SDS011;73596;49.482;11.238;2023-11-21T04:47:44;1.03;;;0.50;;
83634;SDS011;73596;49.482;11.238;2023-11-21T04:50:10;1.52;;;0.73;;
83634;SDS011;73596;49.482;11.238;2023-11-21T04:52:35;1.17;;;0.80;;
83634;SDS011;73596;49.482;11.238;2023-11-21T04:55:01;1.70;;;1.13;;
83634;SDS011;73596;49.482;11.238;2023-11-21T04:57:27;1.15;;;0.70;;
83634;SDS011;73596;49.482;11.238;2023-11-21T04:59:53;1.15;;;0.85;;
83634;SDS011;73596;49.482;11.238;2023-11-21T05:02:19;1.77;;;0.82;;
83634;SDS011;73596;49.482;11.238;2023-11-21T05:04:44;1.17;;;0.50;;
83634;SDS011;73596;49.482;11.238;2023-11-21T05:07:09;1.10;;;0.45;;
83634;SDS011;73596;49.482;11.238;2023-11-21T05:09:35;1.15;;;0.70;;
83634;SDS011;73596;49.482;11.238;2023-11-21T05:12:01;2.15;;;0.80;;
83634;SDS011;73596;49.482;11.238;2023-11-21T05:14:26;3.40;;;1.00;;
83634;SDS011;73596;49.482;11.238;2023-11-21T05:16:52;0.63;;;0.60;;
83634;SDS011;73596;49.482;11.238;2023-11-21T05:19:17;1.43;;;0.70;;
83634;SDS011;73596;49.482;11.238;2023-11-21T05:21:42;0.65;;;0.45;;
83634;SDS011;73596;49.482;11.238;2023-11-21T05:24:08;0.90;;;0.40;;
83634;SDS011;73596;49.482;11.238;2023-11-21T05:26:33;0.43;;;0.40;;
83634;SDS011;73596;49.482;11.238;2023-11-21T05:28:58;1.27;;;0.70;;
83634;SDS011;73596;49.482;11.238;2023-11-21T05:31:24;1.47;;;0.50;;
83634;SDS011;73596;49.482;11.238;2023-11-21T05:33:49;1.67;;;0.80;;
83634;SDS011;73596;49.482;11.238;2023-11-21T05:36:14;1.70;;;0.70;;
83634;SDS011;73596;49.482;11.238;2023-11-21T05:38:39;1.53;;;0.77;;
83634;SDS011;73596;49.482;11.238;2023-11-21T05:41:06;0.77;;;0.40;;
83634;SDS011;73596;49.482;11.238;2023-11-21T05:43:31;1.02;;;0.40;;
83634;SDS011;73596;49.482;11.238;2023-11-21T05:46:00;0.65;;;0.40;;
83634;SDS011;73596;49.482;11.238;2023-11-21T05:48:25;1.60;;;0.40;;
83634;SDS011;73596;49.482;11.238;2023-11-21T05:50:50;2.63;;;0.50;;
83634;SDS011;73596;49.482;11.238;2023-11-21T05:53:16;0.43;;;0.30;;
83634;SDS011;73596;49.482;11.238;2023-11-21T05:55:41;0.82;;;0.47;;
83634;SDS011;73596;49.482;11.238;2023-11-21T05:58:07;0.47;;;0.40;;
83634;SDS011;73596;49.482;11.238;2023-11-21T06:00:32;1.50;;;0.80;;
83634;SDS011;73596;49.482;11.238;2023-11-21T06:02:58;0.95;;;0.55;;
83634;SDS011;73596;49.482;11.238;2023-11-21T06:05:24;1.63;;;0.50;;
83634;SDS011;73596;49.482;11.238;2023-11-21T06:07:51;1.20;;;0.73;;
83634;SDS011;73596;49.482;11.238;2023-11-21T06:10:17;2.55;;;0.50;;
83634;SDS011;73596;49.482;11.238;2023-11-21T06:12:44;1.83;;;0.63;;
83634;SDS011;73596;49.482;11.238;2023-11-21T06:15:10;1.47;;;1.00;;
83634;SDS011;73596;49.482;11.238;2023-11-21T06:17:38;1.48;;;1.20;;
83634;SDS011;73596;49.482;11.238;2023-11-21T06:20:05;1.55;;;1.20;;
83634;SDS011;73596;49.482;11.238;2023-11-21T06:22:37;1.25;;;0.85;;
83634;SDS011;73596;49.482;11.238;2023-11-21T06:25:04;1.08;;;0.82;;
83634;SDS011;73596;49.482;11.238;2023-11-21T06:27:33;1.15;;;1.00;;
83634;SDS011;73596;49.482;11.238;2023-11-21T06:29:59;2.95;;;2.40;;
83634;SDS011;73596;49.482;11.238;2023-11-21T06:32:25;4.43;;;1.75;;
83634;SDS011;73596;49.482;11.238;2023-11-21T06:34:51;4.20;;;1.90;;
83634;SDS011;73596;49.482;11.238;2023-11-21T06:37:19;4.85;;;1.50;;
83634;SDS011;73596;49.482;11.238;2023-11-21T06:39:47;4.13;;;1.83;;
83634;SDS011;73596;49.482;11.238;2023-11-21T06:42:13;4.82;;;2.08;;
83634;SDS011;73596;49.482;11.238;2023-11-21T06:44:40;4.45;;;1.70;;
83634;SDS011;73596;49.482;11.238;2023-11-21T06:47:06;2.30;;;2.10;;
83634;SDS011;73596;49.482;11.238;2023-11-21T06:49:32;4.28;;;2.13;;
83634;SDS011;73596;49.482;11.238;2023-11-21T06:51:57;4.93;;;1.70;;
83634;SDS011;73596;49.482;11.238;2023-11-21T06:54:23;5.25;;;2.17;;
83634;SDS011;73596;49.482;11.238;2023-11-21T06:56:49;5.60;;;2.30;;
83634;SDS011;73596;49.482;11.238;2023-11-21T06:59:15;4.32;;;2.60;;
83634;SDS011;73596;49.482;11.238;2023-11-21T07:01:40;5.40;;;2.28;;
83634;SDS011;73596;49.482;11.238;2023-11-21T07:04:06;6.25;;;2.42;;
83634;SDS011;73596;49.482;11.238;2023-11-21T07:06:32;6.68;;;2.75;;
83634;SDS011;73596;49.482;11.238;2023-11-21T07:08:58;7.07;;;2.45;;
83634;SDS011;73596;49.482;11.238;2023-11-21T07:11:23;2.42;;;1.50;;
83634;SDS011;73596;49.482;11.238;2023-11-21T07:13:49;2.45;;;1.33;;
83634;SDS011;73596;49.482;11.238;2023-11-21T07:16:14;3.47;;;1.27;;
83634;SDS011;73596;49.482;11.238;2023-11-21T07:18:40;1.38;;;0.95;;
83634;SDS011;73596;49.482;11.238;2023-11-21T07:21:05;2.20;;;1.07;;
83634;SDS011;73596;49.482;11.238;2023-11-21T07:23:31;2.97;;;1.10;;
83634;SDS011;73596;49.482;11.238;2023-11-21T07:25:56;1.98;;;0.80;;
83634;SDS011;73596;49.482;11.238;2023-11-21T07:28:22;1.50;;;1.00;;
83634;SDS011;73596;49.482;11.238;2023-11-21T07:30:50;1.45;;;0.98;;
83634;SDS011;73596;49.482;11.238;2023-11-21T07:33:16;4.18;;;1.30;;
83634;SDS011;73596;49.482;11.238;2023-11-21T07:35:42;2.35;;;1.25;;
83634;SDS011;73596;49.482;11.238;2023-11-21T07:38:07;1.73;;;1.20;;
83634;SDS011;73596;49.482;11.238;2023-11-21T07:40:33;2.93;;;1.13;;
83634;SDS011;73596;49.482;11.238;2023-11-21T07:42:58;2.27;;;1.20;;
83634;SDS011;73596;49.482;11.238;2023-11-21T07:45:24;2.03;;;1.10;;
83634;SDS011;73596;49.482;11.238;2023-11-21T07:47:52;1.73;;;1.08;;
83634;SDS011;73596;49.482;11.238;2023-11-21T07:50:18;1.77;;;1.05;;
83634;SDS011;73596;49.482;11.238;2023-11-21T07:52:44;1.83;;;1.00;;
83634;SDS011;73596;49.482;11.238;2023-11-21T07:55:12;2.10;;;1.00;;
83634;SDS011;73596;49.482;11.238;2023-11-21T07:57:38;4.53;;;2.15;;
83634;SDS011;73596;49.482;11.238;2023-11-21T08:00:04;2.30;;;1.30;;
83634;SDS011;73596;49.482;11.238;2023-11-21T08:02:34;1.33;;;1.00;;
83634;SDS011;73596;49.482;11.238;2023-11-21T08:04:59;2.90;;;1.40;;
83634;SDS011;73596;49.482;11.238;2023-11-21T08:07:25;1.60;;;1.00;;
83634;SDS011;73596;49.482;11.238;2023-11-21T08:09:51;1.65;;;0.80;;
83634;SDS011;73596;49.482;11.238;2023-11-21T08:12:16;2.60;;;0.93;;
83634;SDS011;73596;49.482;11.238;2023-11-21T08:14:42;1.25;;;0.82;;
83634;SDS011;73596;49.482;11.238;2023-11-21T08:17:08;1.73;;;1.17;;
83634;SDS011;73596;49.482;11.238;2023-11-21T08:19:35;1.83;;;0.80;;
83634;SDS011;73596;49.482;11.238;2023-11-21T08:22:01;1.98;;;1.15;;
83634;SDS011;73596;49.482;11.238;2023-11-21T08:24:27;1.70;;;1.02;;
83634;SDS011;73596;49.482;11.238;2023-11-21T08:26:52;3.03;;;1.43;;
83634;SDS011;73596;49.482;11.238;2023-11-21T08:29:19;1.75;;;1.05;;
83634;SDS011;73596;49.482;11.238;2023-11-21T08:31:45;1.70;;;1.10;;
83634;SDS011;73596;49.482;11.238;2023-11-21T08:34:11;1.75;;;0.93;;
83634;SDS011;73596;49.482;11.238;2023-11-21T08:36:41;6.82;;;2.20;;
83634;SDS011;73596;49.482;11.238;2023-11-21T08:39:09;5.43;;;2.55;;
83634;SDS011;73596;49.482;11.238;2023-11-21T08:41:35;6.88;;;2.70;;
83634;SDS011;73596;49.482;11.238;2023-11-21T08:44:01;4.72;;;2.50;;
83634;SDS011;73596;49.482;11.238;2023-11-21T08:46:27;4.55;;;2.63;;
83634;SDS011;73596;49.482;11.238;2023-11-21T08:48:52;8.18;;;2.60;;
83634;SDS011;73596;49.482;11.238;2023-11-21T08:51:18;4.93;;;2.85;;
83634;SDS011;73596;49.482;11.238;2023-11-21T08:53:43;5.85;;;2.83;;
83634;SDS011;73596;49.482;11.238;2023-11-21T08:56:15;5.38;;;2.80;;
83634;SDS011;73596;49.482;11.238;2023-11-21T08:58:40;6.07;;;3.55;;
83634;SDS011;73596;49.482;11.238;2023-11-21T09:01:06;8.13;;;3.40;;
83634;SDS011;73596;49.482;11.238;2023-11-21T09:03:32;5.50;;;2.10;;
83634;SDS011;73596;49.482;11.238;2023-11-21T09:05:59;3.22;;;1.75;;
83634;SDS011;73596;49.482;11.238;2023-11-21T09:08:24;7.00;;;3.28;;
83634;SDS011;73596;49.482;11.238;2023-11-21T09:10:50;5.78;;;2.83;;
83634;SDS011;73596;49.482;11.238;2023-11-21T09:13:15;4.32;;;2.92;;
83634;SDS011;73596;49.482;11.238;2023-11-21T09:15:41;6.43;;;3.20;;
83634;SDS011;73596;49.482;11.238;2023-11-21T09:18:11;5.88;;;2.65;;
83634;SDS011;73596;49.482;11.238;2023-11-21T09:20:40;5.63;;;2.72;;
83634;SDS011;73596;49.482;11.238;2023-11-21T09:23:05;4.72;;;2.67;;
83634;SDS011;73596;49.482;11.238;2023-11-21T09:25:32;3.50;;;2.00;;
83634;SDS011;73596;49.482;11.238;2023-11-21T09:27:57;3.00;;;1.50;;
83634;SDS011;73596;49.482;11.238;2023-11-21T09:30:23;2.42;;;1.45;;
83634;SDS011;73596;49.482;11.238;2023-11-21T09:32:49;3.25;;;1.75;;
83634;SDS011;73596;49.482;11.238;2023-11-21T09:35:15;3.78;;;2.13;;
83634;SDS011;73596;49.482;11.238;2023-11-21T09:37:42;4.13;;;1.70;;
83634;SDS011;73596;49.482;11.238;2023-11-21T09:40:10;5.13;;;2.65;;
83634;SDS011;73596;49.482;11.238;2023-11-21T09:42:39;3.78;;;2.45;;
83634;SDS011;73596;49.482;11.238;2023-11-21T09:45:15;4.03;;;2.40;;
83634;SDS011;73596;49.482;11.238;2023-11-21T09:47:46;5.95;;;1.85;;
83634;SDS011;73596;49.482;11.238;2023-11-21T09:50:12;3.28;;;2.22;;
83634;SDS011;73596;49.482;11.238;2023-11-21T09:55:22;4.88;;;1.90;;
83634;SDS011;73596;49.482;11.238;2023-11-21T09:57:51;2.60;;;1.55;;
83634;SDS011;73596;49.482;11.238;2023-11-21T10:00:18;7.63;;;2.75;;
83634;SDS011;73596;49.482;11.238;2023-11-21T10:02:45;3.15;;;1.60;;
83634;SDS011;73596;49.482;11.238;2023-11-21T10:05:12;6.63;;;2.88;;
83634;SDS011;73596;49.482;11.238;2023-11-21T10:07:39;5.55;;;2.03;;
83634;SDS011;73596;49.482;11.238;2023-11-21T10:10:06;3.80;;;1.85;;
83634;SDS011;73596;49.482;11.238;2023-11-21T10:12:33;2.58;;;1.30;;
83634;SDS011;73596;49.482;11.238;2023-11-21T10:15:00;3.17;;;1.75;;
83634;SDS011;73596;49.482;11.238;2023-11-21T10:17:31;2.45;;;1.45;;
83634;SDS011;73596;49.482;11.238;2023-11-21T10:20:04;2.40;;;1.48;;
83634;SDS011;73596;49.482;11.238;2023-11-21T10:22:36;3.45;;;1.45;;
83634;SDS011;73596;49.482;11.238;2023-11-21T10:25:03;1.95;;;1.48;;
83634;SDS011;73596;49.482;11.238;2023-11-21T10:27:32;2.08;;;1.30;;
83634;SDS011;73596;49.482;11.238;2023-11-21T10:29:58;2.97;;;1.40;;
83634;SDS011;73596;49.482;11.238;2023-11-21T10:32:29;3.13;;;2.00;;
83634;SDS011;73596;49.482;11.238;2023-11-21T10:34:57;4.57;;;2.05;;
83634;SDS011;73596;49.482;11.238;2023-11-21T10:37:23;2.33;;;1.20;;
83634;SDS011;73596;49.482;11.238;2023-11-21T10:39:48;1.70;;;1.10;;
83634;SDS011;73596;49.482;11.238;2023-11-21T10:42:13;2.63;;;1.50;;
83634;SDS011;73596;49.482;11.238;2023-11-21T10:44:40;1.57;;;1.10;;
83634;SDS011;73596;49.482;11.238;2023-11-21T10:47:08;1.75;;;0.93;;
83634;SDS011;73596;49.482;11.238;2023-11-21T10:49:36;4.35;;;1.45;;
83634;SDS011;73596;49.482;11.238;2023-11-21T10:52:02;2.05;;;1.00;;
83634;SDS011;73596;49.482;11.238;2023-11-21T10:54:28;6.50;;;1.77;;
83634;SDS011;73596;49.482;11.238;2023-11-21T10:56:57;2.50;;;1.40;;
83634;SDS011;73596;49.482;11.238;2023-11-21T10:59:26;3.25;;;1.55;;
83634;SDS011;73596;49.482;11.238;2023-11-21T11:01:54;1.60;;;1.30;;
83634;SDS011;73596;49.482;11.238;2023-11-21T11:04:20;3.38;;;1.50;;
83634;SDS011;73596;49.482;11.238;2023-11-21T11:06:54;1.50;;;1.10;;
83634;SDS011;73596;49.482;11.238;2023-11-21T11:09:22;1.67;;;1.35;;
83634;SDS011;73596;49.482;11.238;2023-11-21T11:11:48;3.30;;;1.55;;
83634;SDS011;73596;49.482;11.238;2023-11-21T11:14:19;2.95;;;1.50;;
83634;SDS011;73596;49.482;11.238;2023-11-21T11:16:44;1.65;;;1.10;;
83634;SDS011;73596;49.482;11.238;2023-11-21T11:19:10;2.38;;;0.80;;
83634;SDS011;73596;49.482;11.238;2023-11-21T11:24:33;1.75;;;1.20;;
83634;SDS011;73596;49.482;11.238;2023-11-21T11:32:40;1.75;;;0.90;;
83634;SDS011;73596;49.482;11.238;2023-11-21T11:38:18;1.40;;;1.13;;
83634;SDS011;73596;49.482;11.238;2023-11-21T11:40:47;2.35;;;1.35;;
83634;SDS011;73596;49.482;11.238;2023-11-21T11:43:13;2.42;;;1.23;;
83634;SDS011;73596;49.482;11.238;2023-11-21T11:45:38;1.87;;;1.37;;
83634;SDS011;73596;49.482;11.238;2023-11-21T11:48:07;2.70;;;1.42;;
83634;SDS011;73596;49.482;11.238;2023-11-21T11:50:33;3.35;;;1.52;;
83634;SDS011;73596;49.482;11.238;2023-11-21T11:53:12;1.95;;;1.30;;
83634;SDS011;73596;49.482;11.238;2023-11-21T11:55:38;1.50;;;1.20;;
83634;SDS011;73596;49.482;11.238;2023-11-21T11:58:04;3.20;;;0.97;;
83634;SDS011;73596;49.482;11.238;2023-11-21T12:00:34;2.42;;;1.23;;
83634;SDS011;73596;49.482;11.238;2023-11-21T12:03:03;5.63;;;1.50;;
83634;SDS011;73596;49.482;11.238;2023-11-21T12:05:30;3.90;;;1.58;;
83634;SDS011;73596;49.482;11.238;2023-11-21T12:07:58;5.38;;;2.05;;
83634;SDS011;73596;49.482;11.238;2023-11-21T12:10:26;4.25;;;2.50;;
83634;SDS011;73596;49.482;11.238;2023-11-21T12:12:57;3.05;;;1.75;;
83634;SDS011;73596;49.482;11.238;2023-11-21T12:15:23;2.17;;;1.33;;
83634;SDS011;73596;49.482;11.238;2023-11-21T12:17:50;2.47;;;1.23;;
83634;SDS011;73596;49.482;11.238;2023-11-21T12:20:24;3.97;;;2.17;;
83634;SDS011;73596;49.482;11.238;2023-11-21T12:22:51;3.95;;;1.83;;
83634;SDS011;73596;49.482;11.238;2023-11-21T12:25:18;2.25;;;1.20;;
83634;SDS011;73596;49.482;11.238;2023-11-21T12:27:46;4.00;;;1.80;;
83634;SDS011;73596;49.482;11.238;2023-11-21T12:30:22;1.92;;;1.35;;
83634;SDS011;73596;49.482;11.238;2023-11-21T12:33:00;1.80;;;1.33;;
83634;SDS011;73596;49.482;11.238;2023-11-21T12:35:29;2.53;;;1.40;;
83634;SDS011;73596;49.482;11.238;2023-11-21T12:37:58;1.95;;;1.60;;
83634;SDS011;73596;49.482;11.238;2023-11-21T12:40:24;2.05;;;1.20;;
83634;SDS011;73596;49.482;11.238;2023-11-21T12:42:54;2.38;;;1.00;;
83634;SDS011;73596;49.482;11.238;2023-11-21T12:45:21;2.65;;;0.85;;
83634;SDS011;73596;49.482;11.238;2023-11-21T12:47:54;3.05;;;1.17;;
83634;SDS011;73596;49.482;11.238;2023-11-21T12:50:22;1.92;;;1.52;;
83634;SDS011;73596;49.482;11.238;2023-11-21T12:52:51;1.65;;;1.10;;
83634;SDS011;73596;49.482;11.238;2023-11-21T12:55:18;2.10;;;1.52;;
83634;SDS011;73596;49.482;11.238;2023-11-21T12:57:50;2.53;;;1.17;;
83634;SDS011;73596;49.482;11.238;2023-11-21T13:00:16;2.60;;;1.40;;
83634;SDS011;73596;49.482;11.238;2023-11-21T13:02:52;5.00;;;1.40;;
83634;SDS011;73596;49.482;11.238;2023-11-21T13:05:24;1.88;;;1.33;;
83634;SDS011;73596;49.482;11.238;2023-11-21T13:07:58;1.65;;;1.02;;
83634;SDS011;73596;49.482;11.238;2023-11-21T13:10:27;2.45;;;1.10;;
83634;SDS011;73596;49.482;11.238;2023-11-21T13:12:59;3.60;;;2.08;;
83634;SDS011;73596;49.482;11.238;2023-11-21T13:15:26;3.05;;;1.52;;
83634;SDS011;73596;49.482;11.238;2023-11-21T13:17:52;1.20;;;0.98;;
83634;SDS011;73596;49.482;11.238;2023-11-21T13:20:19;3.00;;;1.15;;
83634;SDS011;73596;49.482;11.238;2023-11-21T13:22:54;3.20;;;1.50;;
83634;SDS011;73596;49.482;11.238;2023-11-21T13:25:26;3.17;;;1.73;;
83634;SDS011;73596;49.482;11.238;2023-11-21T13:27:55;1.48;;;0.75;;
83634;SDS011;73596;49.482;11.238;2023-11-21T13:30:21;2.13;;;0.77;;
83634;SDS011;73596;49.482;11.238;2023-11-21T13:32:51;1.73;;;1.27;;
83634;SDS011;73596;49.482;11.238;2023-11-21T13:35:17;3.22;;;1.40;;
83634;SDS011;73596;49.482;11.238;2023-11-21T13:37:49;3.08;;;1.30;;
83634;SDS011;73596;49.482;11.238;2023-11-21T13:40:21;2.83;;;1.60;;
83634;SDS011;73596;49.482;11.238;2023-11-21T13:42:53;2.35;;;1.80;;
83634;SDS011;73596;49.482;11.238;2023-11-21T13:45:23;3.10;;;1.30;;
83634;SDS011;73596;49.482;11.238;2023-11-21T13:47:49;3.30;;;1.35;;
83634;SDS011;73596;49.482;11.238;2023-11-21T13:50:22;5.38;;;1.45;;
83634;SDS011;73596;49.482;11.238;2023-11-21T13:52:49;2.58;;;0.98;;
83634;SDS011;73596;49.482;11.238;2023-11-21T13:55:17;3.28;;;1.10;;
83634;SDS011;73596;49.482;11.238;2023-11-21T13:57:43;4.75;;;1.40;;
83634;SDS011;73596;49.482;11.238;2023-11-21T14:00:10;2.17;;;1.58;;
83634;SDS011;73596;49.482;11.238;2023-11-21T14:02:56;1.98;;;1.50;;
83634;SDS011;73596;49.482;11.238;2023-11-21T14:05:25;2.33;;;1.42;;
83634;SDS011;73596;49.482;11.238;2023-11-21T14:07:54;3.28;;;1.58;;
83634;SDS011;73596;49.482;11.238;2023-11-21T14:10:21;1.77;;;1.10;;
83634;SDS011;73596;49.482;11.238;2023-11-21T14:12:49;3.00;;;1.20;;
83634;SDS011;73596;49.482;11.238;2023-11-21T14:15:15;2.03;;;1.15;;
83634;SDS011;73596;49.482;11.238;2023-11-21T14:17:43;7.05;;;1.67;;
83634;SDS011;73596;49.482;11.238;2023-11-21T14:20:09;2.97;;;1.40;;
83634;SDS011;73596;49.482;11.238;2023-11-21T14:22:40;3.58;;;1.52;;
83634;SDS011;73596;49.482;11.238;2023-11-21T14:25:06;3.17;;;1.20;;
83634;SDS011;73596;49.482;11.238;2023-11-21T14:27:31;2.97;;;1.20;;
83634;SDS011;73596;49.482;11.238;2023-11-21T14:29:58;2.72;;;0.90;;
83634;SDS011;73596;49.482;11.238;2023-11-21T14:32:24;5.30;;;1.75;;
83634;SDS011;73596;49.482;11.238;2023-11-21T14:34:51;2.58;;;1.08;;
83634;SDS011;73596;49.482;11.238;2023-11-21T14:37:18;3.67;;;1.63;;
83634;SDS011;73596;49.482;11.238;2023-11-21T14:39:44;1.50;;;0.95;;
83634;SDS011;73596;49.482;11.238;2023-11-21T14:42:13;1.90;;;1.08;;
83634;SDS011;73596;49.482;11.238;2023-11-21T14:44:40;1.50;;;1.10;;